TimeCDT,TemperatureF,Dew PointF,Humidity,Sea Level PressureIn,VisibilityMPH,Wind Direction,Wind SpeedMPH,Gust SpeedMPH,PrecipitationIn,Events,Conditions,WindDirDegrees,DateUTC
12:54 AM,33.1,30.9,92,29.80,10.0,West,12.7,23.0,N/A,,Overcast,280,2013-03-11 05:54:00
1:54 AM,33.1,28.9,85,29.79,10.0,West,18.4,26.5,N/A,,Overcast,270,2013-03-11 06:54:00
2:29 AM,32.0,28.0,85,29.78,10.0,West,18.4,26.5,N/A,,Overcast,280,2013-03-11 07:29:00
2:54 AM,32.0,28.0,85,29.78,10.0,West,13.8,21.9,N/A,,Overcast,270,2013-03-11 07:54:00
3:19 AM,32.0,28.0,85,29.76,10.0,West,11.5,21.9,N/A,,Overcast,280,2013-03-11 08:19:00
3:50 AM,32.0,28.4,87,29.76,10.0,West,10.4,19.6,N/A,,Overcast,280,2013-03-11 08:50:00
3:54 AM,32.0,28.0,85,29.78,10.0,West,11.5,-,N/A,,Overcast,270,2013-03-11 08:54:00
4:54 AM,32.0,27.0,82,29.79,10.0,West,11.5,-,N/A,,Overcast,260,2013-03-11 09:54:00
5:54 AM,30.9,27.0,85,29.81,8.0,West,17.3,-,N/A,,Overcast,270,2013-03-11 10:54:00
6:50 AM,30.2,28.4,93,29.80,5.0,West,15.0,-,0.00,Rain,Light Freezing Rain,280,2013-03-11 11:50:00
6:54 AM,30.9,27.0,85,29.81,5.0,West,15.0,-,0.00,Rain,Light Freezing Rain,280,2013-03-11 11:54:00
7:18 AM,30.9,28.0,89,29.79,5.0,West,17.3,24.2,0.00,Rain,Light Freezing Rain,280,2013-03-11 12:18:00
7:22 AM,30.0,27.0,88,29.79,5.0,West,13.8,24.2,0.00,,Overcast,270,2013-03-11 12:22:00
7:29 AM,30.0,27.0,88,29.79,5.0,West,12.7,21.9,0.00,Rain,Light Freezing Rain,280,2013-03-11 12:29:00
7:42 AM,30.0,27.0,88,29.80,5.0,West,16.1,-,0.00,,Overcast,270,2013-03-11 12:42:00
7:54 AM,30.0,27.0,88,29.82,7.0,West,13.8,23.0,0.00,,Overcast,280,2013-03-11 12:54:00
8:36 AM,30.0,27.0,88,29.81,4.0,West,18.4,25.3,0.00,Rain,Light Freezing Rain,270,2013-03-11 13:36:00
8:54 AM,30.0,27.0,88,29.84,5.0,WNW,18.4,26.5,0.00,Rain,Light Freezing Rain,290,2013-03-11 13:54:00
9:04 AM,30.0,25.0,82,29.82,8.0,West,17.3,25.3,0.00,,Overcast,280,2013-03-11 14:04:00
9:33 AM,30.0,26.1,85,29.83,10.0,West,15.0,-,0.00,,Overcast,270,2013-03-11 14:33:00
9:54 AM,30.0,25.0,82,29.86,9.0,West,18.4,25.3,0.00,,Overcast,270,2013-03-11 14:54:00
10:54 AM,30.0,25.0,82,29.87,8.0,West,17.3,27.6,N/A,,Overcast,280,2013-03-11 15:54:00
11:54 AM,30.9,25.0,79,29.87,10.0,West,18.4,26.5,N/A,,Overcast,270,2013-03-11 16:54:00
12:09 PM,30.9,25.0,79,29.85,10.0,West,16.1,26.5,N/A,,Overcast,270,2013-03-11 17:09:00
12:54 PM,30.9,25.0,79,29.87,10.0,West,13.8,-,N/A,,Overcast,280,2013-03-11 17:54:00
1:54 PM,32.0,26.1,79,29.87,10.0,West,17.3,25.3,N/A,,Overcast,280,2013-03-11 18:54:00
2:54 PM,35.1,28.9,78,29.87,10.0,West,15.0,-,N/A,,Overcast,270,2013-03-11 19:54:00
3:54 PM,35.1,26.1,70,29.89,10.0,WNW,17.3,23.0,N/A,,Overcast,290,2013-03-11 20:54:00
4:54 PM,35.1,26.1,70,29.90,10.0,West,13.8,-,N/A,,Overcast,280,2013-03-11 21:54:00
5:54 PM,33.8,24.8,70,29.89,10.0,West,9.2,18.4,N/A,,Overcast,280,2013-03-11 22:54:00
6:54 PM,34.0,24.1,67,29.94,10.0,WNW,9.2,-,N/A,,Overcast,290,2013-03-11 23:54:00
7:54 PM,34.0,25.0,70,29.96,10.0,West,10.4,-,N/A,,Overcast,280,2013-03-12 00:54:00
8:54 PM,30.9,24.1,76,29.98,10.0,WNW,8.1,-,N/A,,Clear,290,2013-03-12 01:54:00
9:54 PM,30.9,24.1,76,30.00,10.0,WNW,8.1,-,N/A,,Clear,300,2013-03-12 02:54:00
10:54 PM,30.0,24.1,79,30.01,10.0,WNW,8.1,-,N/A,,Clear,290,2013-03-12 03:54:00
11:54 PM,28.0,23.0,81,30.01,10.0,West,5.8,-,N/A,,Clear,260,2013-03-12 04:54:00